sensor_id;sensor_type;location;lat;lon;timestamp;pressure;altitude;pressure_sealevel;temperature;humidity
71567;BME280;59403;47.456;19.120;2023-02-02T00:02:01;100207.41;;;3.45;100.00
71567;BME280;59403;47.456;19.120;2023-02-02T00:04:30;100198.59;;;3.46;100.00
71567;BME280;59403;47.456;19.120;2023-02-02T00:06:57;100185.75;;;3.55;100.00
71567;BME280;59403;47.456;19.120;2023-02-02T00:09:25;100191.56;;;3.58;100.00
71567;BME280;59403;47.456;19.120;2023-02-02T00:11:53;100184.81;;;3.56;100.00
71567;BME280;59403;47.456;19.120;2023-02-02T00:14:22;100196.97;;;3.68;100.00
71567;BME280;59403;47.456;19.120;2023-02-02T00:16:50;100199.81;;;3.65;100.00
71567;BME280;59403;47.456;19.120;2023-02-02T00:19:20;100192.56;;;3.68;100.00
71567;BME280;59403;47.456;19.120;2023-02-02T00:21:47;100200.88;;;3.73;100.00
71567;BME280;59403;47.456;19.120;2023-02-02T00:24:15;100191.94;;;3.76;100.00
71567;BME280;59403;47.456;19.120;2023-02-02T00:26:44;100203.50;;;3.73;100.00
71567;BME280;59403;47.456;19.120;2023-02-02T00:29:14;100193.28;;;3.92;100.00
71567;BME280;59403;47.456;19.120;2023-02-02T00:31:43;100194.56;;;3.87;100.00
71567;BME280;59403;47.456;19.120;2023-02-02T00:34:10;100184.09;;;3.87;100.00
71567;BME280;59403;47.456;19.120;2023-02-02T00:36:38;100185.28;;;3.83;100.00
71567;BME280;59403;47.456;19.120;2023-02-02T00:39:05;100182.28;;;3.98;100.00
71567;BME280;59403;47.456;19.120;2023-02-02T00:41:31;100165.16;;;3.83;100.00
71567;BME280;59403;47.456;19.120;2023-02-02T00:43:58;100131.50;;;3.68;100.00
71567;BME280;59403;47.456;19.120;2023-02-02T00:46:44;100123.41;;;3.60;100.00
71567;BME280;59403;47.456;19.120;2023-02-02T00:49:11;100126.62;;;3.63;100.00
71567;BME280;59403;47.456;19.120;2023-02-02T00:51:38;100124.31;;;3.81;100.00
71567;BME280;59403;47.456;19.120;2023-02-02T00:54:05;100120.53;;;3.74;100.00
71567;BME280;59403;47.456;19.120;2023-02-02T00:56:32;100142.91;;;3.78;100.00
71567;BME280;59403;47.456;19.120;2023-02-02T00:58:59;100148.72;;;3.70;100.00
71567;BME280;59403;47.456;19.120;2023-02-02T01:01:25;100156.25;;;3.86;100.00
71567;BME280;59403;47.456;19.120;2023-02-02T01:03:54;100161.47;;;3.97;100.00
71567;BME280;59403;47.456;19.120;2023-02-02T01:06:21;100149.88;;;4.10;98.54
71567;BME280;59403;47.456;19.120;2023-02-02T01:08:48;100159.78;;;4.18;97.88
71567;BME280;59403;47.456;19.120;2023-02-02T01:11:15;100160.03;;;4.15;97.63
71567;BME280;59403;47.456;19.120;2023-02-02T01:13:42;100171.69;;;4.22;97.31
71567;BME280;59403;47.456;19.120;2023-02-02T01:16:10;100168.34;;;4.20;98.18
71567;BME280;59403;47.456;19.120;2023-02-02T01:18:37;100170.84;;;4.21;97.46
71567;BME280;59403;47.456;19.120;2023-02-02T01:21:07;100163.38;;;4.06;98.97
71567;BME280;59403;47.456;19.120;2023-02-02T01:23:35;100145.28;;;4.03;99.38
71567;BME280;59403;47.456;19.120;2023-02-02T01:26:05;100148.84;;;4.02;98.86
71567;BME280;59403;47.456;19.120;2023-02-02T01:28:33;100154.09;;;3.91;100.00
71567;BME280;59403;47.456;19.120;2023-02-02T01:31:05;100152.28;;;3.91;100.00
71567;BME280;59403;47.456;19.120;2023-02-02T01:33:32;100158.16;;;3.84;100.00
71567;BME280;59403;47.456;19.120;2023-02-02T01:36:02;100165.28;;;3.82;100.00
71567;BME280;59403;47.456;19.120;2023-02-02T01:38:32;100189.72;;;3.82;100.00
71567;BME280;59403;47.456;19.120;2023-02-02T01:41:00;100183.37;;;3.74;100.00
71567;BME280;59403;47.456;19.120;2023-02-02T01:43:30;100179.94;;;3.73;100.00
71567;BME280;59403;47.456;19.120;2023-02-02T01:46:18;100187.78;;;3.84;100.00
71567;BME280;59403;47.456;19.120;2023-02-02T01:48:47;100176.03;;;3.79;100.00
71567;BME280;59403;47.456;19.120;2023-02-02T01:51:17;100172.06;;;3.62;100.00
71567;BME280;59403;47.456;19.120;2023-02-02T01:53:47;100169.22;;;3.65;100.00
71567;BME280;59403;47.456;19.120;2023-02-02T01:56:20;100135.66;;;3.59;100.00
71567;BME280;59403;47.456;19.120;2023-02-02T01:58:50;100133.88;;;3.71;100.00
71567;BME280;59403;47.456;19.120;2023-02-02T02:04:13;100147.19;;;3.57;100.00
71567;BME280;59403;47.456;19.120;2023-02-02T02:06:42;100130.69;;;3.56;100.00
71567;BME280;59403;47.456;19.120;2023-02-02T02:09:11;100121.75;;;3.70;99.11
71567;BME280;59403;47.456;19.120;2023-02-02T02:11:38;100117.81;;;3.64;99.69
71567;BME280;59403;47.456;19.120;2023-02-02T02:14:07;100120.53;;;3.74;98.43
71567;BME280;59403;47.456;19.120;2023-02-02T02:17:02;100117.19;;;3.83;97.61
71567;BME280;59403;47.456;19.120;2023-02-02T02:23:01;100097.53;;;3.77;99.01
71567;BME280;59403;47.456;19.120;2023-02-02T02:26:07;100091.72;;;3.74;99.99
71567;BME280;59403;47.456;19.120;2023-02-02T02:29:16;100097.94;;;3.62;100.00
71567;BME280;59403;47.456;19.120;2023-02-02T02:32:23;100104.50;;;3.56;100.00
71567;BME280;59403;47.456;19.120;2023-02-02T02:34:59;100092.34;;;3.55;100.00
71567;BME280;59403;47.456;19.120;2023-02-02T02:37:34;100099.72;;;3.50;100.00
71567;BME280;59403;47.456;19.120;2023-02-02T02:40:07;100115.56;;;3.48;100.00
71567;BME280;59403;47.456;19.120;2023-02-02T02:42:39;100123.53;;;3.47;100.00
71567;BME280;59403;47.456;19.120;2023-02-02T02:45:08;100125.44;;;3.45;100.00
71567;BME280;59403;47.456;19.120;2023-02-02T02:47:38;100138.97;;;3.39;100.00
71567;BME280;59403;47.456;19.120;2023-02-02T02:50:07;100130.06;;;3.41;100.00
71567;BME280;59403;47.456;19.120;2023-02-02T02:52:35;100133.13;;;3.35;100.00
71567;BME280;59403;47.456;19.120;2023-02-02T02:55:03;100148.84;;;3.35;100.00
71567;BME280;59403;47.456;19.120;2023-02-02T02:57:41;100142.91;;;3.33;100.00
71567;BME280;59403;47.456;19.120;2023-02-02T03:00:21;100150.16;;;3.30;100.00
71567;BME280;59403;47.456;19.120;2023-02-02T03:02:57;100152.06;;;3.28;100.00
71567;BME280;59403;47.456;19.120;2023-02-02T03:05:34;100146.47;;;3.21;100.00
71567;BME280;59403;47.456;19.120;2023-02-02T03:08:08;100143.84;;;3.21;100.00
71567;BME280;59403;47.456;19.120;2023-02-02T03:10:38;100139.56;;;3.20;100.00
71567;BME280;59403;47.456;19.120;2023-02-02T03:13:08;100135.75;;;3.13;100.00
71567;BME280;59403;47.456;19.120;2023-02-02T03:15:38;100141.94;;;3.12;100.00
71567;BME280;59403;47.456;19.120;2023-02-02T03:18:07;100143.59;;;3.13;100.00
71567;BME280;59403;47.456;19.120;2023-02-02T03:20:34;100133.25;;;3.12;100.00
71567;BME280;59403;47.456;19.120;2023-02-02T03:23:01;100135.84;;;3.12;100.00
71567;BME280;59403;47.456;19.120;2023-02-02T03:25:28;100128.97;;;3.11;100.00
71567;BME280;59403;47.456;19.120;2023-02-02T03:27:55;100124.66;;;3.10;100.00
71567;BME280;59403;47.456;19.120;2023-02-02T03:30:23;100128.13;;;3.10;100.00
71567;BME280;59403;47.456;19.120;2023-02-02T03:32:51;100139.44;;;3.11;100.00
71567;BME280;59403;47.456;19.120;2023-02-02T03:35:19;100144.88;;;3.08;100.00
71567;BME280;59403;47.456;19.120;2023-02-02T03:37:46;100149.31;;;3.07;100.00
71567;BME280;59403;47.456;19.120;2023-02-02T03:40:13;100131.81;;;3.08;100.00
71567;BME280;59403;47.456;19.120;2023-02-02T03:42:40;100126.69;;;3.06;100.00
71567;BME280;59403;47.456;19.120;2023-02-02T03:45:08;100129.19;;;3.08;100.00
71567;BME280;59403;47.456;19.120;2023-02-02T03:47:35;100133.22;;;3.01;100.00
71567;BME280;59403;47.456;19.120;2023-02-02T03:50:03;100134.63;;;2.94;100.00
71567;BME280;59403;47.456;19.120;2023-02-02T03:52:31;100136.31;;;2.95;100.00
71567;BME280;59403;47.456;19.120;2023-02-02T03:54:58;100139.03;;;2.93;100.00
71567;BME280;59403;47.456;19.120;2023-02-02T03:57:26;100144.94;;;2.84;100.00
71567;BME280;59403;47.456;19.120;2023-02-02T03:59:52;100144.38;;;2.92;100.00
71567;BME280;59403;47.456;19.120;2023-02-02T04:02:19;100134.97;;;2.89;100.00
71567;BME280;59403;47.456;19.120;2023-02-02T04:04:46;100151.94;;;2.84;100.00
71567;BME280;59403;47.456;19.120;2023-02-02T04:07:14;100139.94;;;2.81;100.00
71567;BME280;59403;47.456;19.120;2023-02-02T04:09:42;100122.81;;;2.77;100.00
71567;BME280;59403;47.456;19.120;2023-02-02T04:12:09;100125.44;;;2.77;100.00
71567;BME280;59403;47.456;19.120;2023-02-02T04:14:36;100116.16;;;2.73;100.00
71567;BME280;59403;47.456;19.120;2023-02-02T04:17:02;100109.88;;;2.76;100.00
71567;BME280;59403;47.456;19.120;2023-02-02T04:19:29;100110.31;;;2.70;100.00
71567;BME280;59403;47.456;19.120;2023-02-02T04:21:56;100127.38;;;2.63;100.00
71567;BME280;59403;47.456;19.120;2023-02-02T04:24:23;100135.97;;;2.65;100.00
71567;BME280;59403;47.456;19.120;2023-02-02T04:26:51;100142.47;;;2.59;100.00
71567;BME280;59403;47.456;19.120;2023-02-02T04:29:18;100149.00;;;2.54;100.00
71567;BME280;59403;47.456;19.120;2023-02-02T04:31:45;100158.63;;;2.53;100.00
71567;BME280;59403;47.456;19.120;2023-02-02T04:34:12;100156.00;;;2.53;100.00
71567;BME280;59403;47.456;19.120;2023-02-02T04:36:39;100168.34;;;2.51;100.00
71567;BME280;59403;47.456;19.120;2023-02-02T04:39:08;100170.59;;;2.56;100.00
71567;BME280;59403;47.456;19.120;2023-02-02T04:41:36;100175.75;;;2.57;100.00
71567;BME280;59403;47.456;19.120;2023-02-02T04:44:04;100173.81;;;2.48;100.00
71567;BME280;59403;47.456;19.120;2023-02-02T04:46:35;100176.72;;;2.44;100.00
71567;BME280;59403;47.456;19.120;2023-02-02T04:49:01;100185.03;;;2.38;100.00
71567;BME280;59403;47.456;19.120;2023-02-02T04:51:28;100186.19;;;2.33;100.00
71567;BME280;59403;47.456;19.120;2023-02-02T04:53:56;100186.28;;;2.32;100.00
71567;BME280;59403;47.456;19.120;2023-02-02T04:56:22;100196.50;;;2.35;100.00
71567;BME280;59403;47.456;19.120;2023-02-02T04:58:52;100191.06;;;2.38;100.00
71567;BME280;59403;47.456;19.120;2023-02-02T05:01:21;100196.97;;;2.29;100.00
71567;BME280;59403;47.456;19.120;2023-02-02T05:03:49;100193.84;;;2.24;100.00
71567;BME280;59403;47.456;19.120;2023-02-02T05:06:16;100183.94;;;2.16;100.00
71567;BME280;59403;47.456;19.120;2023-02-02T05:08:43;100187.81;;;2.11;100.00
71567;BME280;59403;47.456;19.120;2023-02-02T05:11:13;100200.25;;;2.07;100.00
71567;BME280;59403;47.456;19.120;2023-02-02T05:13:44;100208.62;;;2.00;100.00
71567;BME280;59403;47.456;19.120;2023-02-02T05:16:11;100200.16;;;2.09;100.00
71567;BME280;59403;47.456;19.120;2023-02-02T05:18:40;100196.63;;;2.10;100.00
71567;BME280;59403;47.456;19.120;2023-02-02T05:21:07;100212.16;;;2.11;100.00
71567;BME280;59403;47.456;19.120;2023-02-02T05:23:34;100207.69;;;2.37;100.00
71567;BME280;59403;47.456;19.120;2023-02-02T05:26:01;100219.91;;;2.37;100.00
71567;BME280;59403;47.456;19.120;2023-02-02T05:28:28;100233.06;;;2.48;100.00
71567;BME280;59403;47.456;19.120;2023-02-02T05:30:54;100236.63;;;2.47;100.00
71567;BME280;59403;47.456;19.120;2023-02-02T05:33:21;100242.91;;;2.44;100.00
71567;BME280;59403;47.456;19.120;2023-02-02T05:35:50;100236.53;;;2.48;100.00
71567;BME280;59403;47.456;19.120;2023-02-02T05:38:17;100244.88;;;2.53;100.00
71567;BME280;59403;47.456;19.120;2023-02-02T05:40:44;100240.87;;;2.60;100.00
71567;BME280;59403;47.456;19.120;2023-02-02T05:43:10;100243.78;;;2.56;100.00
71567;BME280;59403;47.456;19.120;2023-02-02T05:45:37;100252.94;;;2.50;100.00
71567;BME280;59403;47.456;19.120;2023-02-02T05:48:05;100238.78;;;2.53;100.00
71567;BME280;59403;47.456;19.120;2023-02-02T05:50:31;100253.75;;;2.51;100.00
71567;BME280;59403;47.456;19.120;2023-02-02T05:53:00;100245.75;;;2.41;100.00
71567;BME280;59403;47.456;19.120;2023-02-02T05:55:26;100238.62;;;2.43;100.00
71567;BME280;59403;47.456;19.120;2023-02-02T05:57:53;100231.72;;;2.42;100.00
71567;BME280;59403;47.456;19.120;2023-02-02T06:00:21;100238.44;;;2.33;100.00
71567;BME280;59403;47.456;19.120;2023-02-02T06:02:48;100228.72;;;2.36;100.00
71567;BME280;59403;47.456;19.120;2023-02-02T06:05:15;100221.41;;;2.28;100.00
71567;BME280;59403;47.456;19.120;2023-02-02T06:07:42;100228.09;;;2.32;100.00
71567;BME280;59403;47.456;19.120;2023-02-02T06:10:10;100224.25;;;2.25;100.00
71567;BME280;59403;47.456;19.120;2023-02-02T06:12:37;100217.06;;;2.16;100.00
71567;BME280;59403;47.456;19.120;2023-02-02T06:15:05;100232.94;;;2.13;100.00
71567;BME280;59403;47.456;19.120;2023-02-02T06:17:32;100213.72;;;2.14;100.00
71567;BME280;59403;47.456;19.120;2023-02-02T06:19:59;100227.19;;;2.20;100.00
71567;BME280;59403;47.456;19.120;2023-02-02T06:22:26;100227.19;;;2.20;100.00
71567;BME280;59403;47.456;19.120;2023-02-02T06:24:54;100228.06;;;2.08;100.00
71567;BME280;59403;47.456;19.120;2023-02-02T06:27:23;100221.03;;;2.09;100.00
71567;BME280;59403;47.456;19.120;2023-02-02T06:29:50;100239.31;;;2.09;100.00
71567;BME280;59403;47.456;19.120;2023-02-02T06:32:17;100236.72;;;2.09;100.00
71567;BME280;59403;47.456;19.120;2023-02-02T06:34:43;100231.59;;;2.07;100.00
71567;BME280;59403;47.456;19.120;2023-02-02T06:37:10;100225.03;;;2.02;100.00
71567;BME280;59403;47.456;19.120;2023-02-02T06:39:37;100219.81;;;2.02;100.00
71567;BME280;59403;47.456;19.120;2023-02-02T06:42:04;100221.78;;;1.98;100.00
71567;BME280;59403;47.456;19.120;2023-02-02T06:44:32;100229.97;;;1.94;100.00
71567;BME280;59403;47.456;19.120;2023-02-02T06:46:59;100232.56;;;1.94;100.00
71567;BME280;59403;47.456;19.120;2023-02-02T06:49:26;100244.88;;;1.92;100.00
71567;BME280;59403;47.456;19.120;2023-02-02T06:51:53;100250.84;;;2.06;100.00
71567;BME280;59403;47.456;19.120;2023-02-02T06:54:20;100252.09;;;2.01;100.00
71567;BME280;59403;47.456;19.120;2023-02-02T06:56:47;100253.63;;;2.03;100.00
71567;BME280;59403;47.456;19.120;2023-02-02T06:59:13;100260.84;;;2.12;100.00
71567;BME280;59403;47.456;19.120;2023-02-02T07:01:41;100259.47;;;2.19;100.00
71567;BME280;59403;47.456;19.120;2023-02-02T07:04:08;100256.56;;;2.24;100.00
71567;BME280;59403;47.456;19.120;2023-02-02T07:06:36;100265.72;;;2.29;100.00
71567;BME280;59403;47.456;19.120;2023-02-02T07:09:04;100271.88;;;2.41;100.00
71567;BME280;59403;47.456;19.120;2023-02-02T07:11:31;100273.97;;;2.36;100.00
71567;BME280;59403;47.456;19.120;2023-02-02T07:14:00;100276.59;;;2.36;100.00
71567;BME280;59403;47.456;19.120;2023-02-02T07:16:27;100269.44;;;2.51;100.00
71567;BME280;59403;47.456;19.120;2023-02-02T07:18:55;100281.44;;;2.53;100.00
71567;BME280;59403;47.456;19.120;2023-02-02T07:21:24;100290.53;;;2.60;100.00
71567;BME280;59403;47.456;19.120;2023-02-02T07:23:52;100290.31;;;2.63;99.81
71567;BME280;59403;47.456;19.120;2023-02-02T07:26:19;100287.91;;;2.60;100.00
71567;BME280;59403;47.456;19.120;2023-02-02T07:28:46;100280.19;;;2.59;100.00
71567;BME280;59403;47.456;19.120;2023-02-02T07:31:14;100281.13;;;2.58;100.00
71567;BME280;59403;47.456;19.120;2023-02-02T07:33:42;100260.41;;;2.67;100.00
71567;BME280;59403;47.456;19.120;2023-02-02T07:36:12;100263.13;;;2.66;99.95
71567;BME280;59403;47.456;19.120;2023-02-02T07:38:40;100258.16;;;2.74;99.26
71567;BME280;59403;47.456;19.120;2023-02-02T07:41:07;100249.66;;;2.83;98.45
71567;BME280;59403;47.456;19.120;2023-02-02T07:43:34;100252.03;;;2.86;98.21
71567;BME280;59403;47.456;19.120;2023-02-02T07:46:02;100256.91;;;2.90;97.66
71567;BME280;59403;47.456;19.120;2023-02-02T07:48:31;100264.34;;;2.96;97.41
71567;BME280;59403;47.456;19.120;2023-02-02T07:50:58;100274.31;;;2.91;97.83
71567;BME280;59403;47.456;19.120;2023-02-02T07:53:27;100282.78;;;3.06;96.84
71567;BME280;59403;47.456;19.120;2023-02-02T07:56:05;100271.91;;;3.12;95.91
71567;BME280;59403;47.456;19.120;2023-02-02T07:58:31;100283.19;;;3.12;96.11
71567;BME280;59403;47.456;19.120;2023-02-02T08:01:00;100282.47;;;3.10;97.18
71567;BME280;59403;47.456;19.120;2023-02-02T08:03:27;100280.47;;;3.14;96.87
71567;BME280;59403;47.456;19.120;2023-02-02T08:05:54;100283.94;;;3.25;95.86
71567;BME280;59403;47.456;19.120;2023-02-02T08:08:21;100270.06;;;3.36;96.39
71567;BME280;59403;47.456;19.120;2023-02-02T08:10:50;100271.16;;;3.44;94.28
71567;BME280;59403;47.456;19.120;2023-02-02T08:13:18;100274.63;;;3.45;93.65
71567;BME280;59403;47.456;19.120;2023-02-02T08:15:45;100288.75;;;3.42;94.25
71567;BME280;59403;47.456;19.120;2023-02-02T08:18:12;100284.25;;;3.44;94.06
71567;BME280;59403;47.456;19.120;2023-02-02T08:20:39;100283.09;;;3.48;93.10
71567;BME280;59403;47.456;19.120;2023-02-02T08:23:06;100293.81;;;3.57;93.78
71567;BME280;59403;47.456;19.120;2023-02-02T08:25:38;100287.16;;;3.64;93.22
71567;BME280;59403;47.456;19.120;2023-02-02T08:28:06;100287.78;;;3.78;91.88
71567;BME280;59403;47.456;19.120;2023-02-02T08:30:33;100290.53;;;3.88;91.61
71567;BME280;59403;47.456;19.120;2023-02-02T08:33:00;100275.78;;;3.98;90.84
71567;BME280;59403;47.456;19.120;2023-02-02T08:35:27;100285.16;;;3.89;91.68
71567;BME280;59403;47.456;19.120;2023-02-02T08:37:54;100283.03;;;4.05;91.10
71567;BME280;59403;47.456;19.120;2023-02-02T08:40:21;100291.50;;;3.98;90.92
71567;BME280;59403;47.456;19.120;2023-02-02T08:42:52;100282.47;;;3.91;91.67
71567;BME280;59403;47.456;19.120;2023-02-02T08:45:20;100301.97;;;3.87;91.08
71567;BME280;59403;47.456;19.120;2023-02-02T08:47:47;100302.31;;;3.93;90.22
71567;BME280;59403;47.456;19.120;2023-02-02T08:50:15;100307.94;;;4.11;88.49
71567;BME280;59403;47.456;19.120;2023-02-02T08:52:42;100313.19;;;4.11;88.25
71567;BME280;59403;47.456;19.120;2023-02-02T08:55:09;100322.25;;;4.18;89.28
71567;BME280;59403;47.456;19.120;2023-02-02T08:57:36;100333.22;;;4.34;84.75
71567;BME280;59403;47.456;19.120;2023-02-02T09:00:04;100328.56;;;4.37;85.21
71567;BME280;59403;47.456;19.120;2023-02-02T09:02:32;100332.88;;;4.27;86.49
71567;BME280;59403;47.456;19.120;2023-02-02T09:04:59;100337.97;;;4.40;86.38
71567;BME280;59403;47.456;19.120;2023-02-02T09:07:26;100352.63;;;4.53;83.14
71567;BME280;59403;47.456;19.120;2023-02-02T09:09:53;100356.09;;;4.65;84.26
71567;BME280;59403;47.456;19.120;2023-02-02T09:12:22;100363.25;;;4.74;81.75
71567;BME280;59403;47.456;19.120;2023-02-02T09:14:49;100354.75;;;4.82;80.30
71567;BME280;59403;47.456;19.120;2023-02-02T09:17:16;100353.19;;;4.90;79.01
71567;BME280;59403;47.456;19.120;2023-02-02T09:19:44;100366.81;;;4.84;81.33
71567;BME280;59403;47.456;19.120;2023-02-02T09:22:11;100349.63;;;4.91;79.59
71567;BME280;59403;47.456;19.120;2023-02-02T09:24:38;100350.66;;;5.00;78.65
71567;BME280;59403;47.456;19.120;2023-02-02T09:27:05;100349.69;;;5.01;78.87
71567;BME280;59403;47.456;19.120;2023-02-02T09:29:32;100351.16;;;4.94;79.37
71567;BME280;59403;47.456;19.120;2023-02-02T09:31:59;100356.19;;;4.97;80.66
71567;BME280;59403;47.456;19.120;2023-02-02T09:34:26;100359.59;;;5.08;80.33
71567;BME280;59403;47.456;19.120;2023-02-02T09:36:54;100365.56;;;5.10;78.43
71567;BME280;59403;47.456;19.120;2023-02-02T09:39:21;100358.81;;;5.28;75.92
71567;BME280;59403;47.456;19.120;2023-02-02T09:42:08;100360.38;;;5.31;76.25
71567;BME280;59403;47.456;19.120;2023-02-02T09:44:58;100355.37;;;5.28;76.65
71567;BME280;59403;47.456;19.120;2023-02-02T09:47:54;100364.62;;;5.43;76.78
71567;BME280;59403;47.456;19.120;2023-02-02T09:50:40;100362.91;;;5.53;74.65
71567;BME280;59403;47.456;19.120;2023-02-02T09:53:15;100352.03;;;5.57;74.99
71567;BME280;59403;47.456;19.120;2023-02-02T09:55:47;100354.72;;;5.67;74.85
71567;BME280;59403;47.456;19.120;2023-02-02T09:58:18;100350.62;;;5.74;73.88
71567;BME280;59403;47.456;19.120;2023-02-02T10:00:53;100354.94;;;5.75;73.60
71567;BME280;59403;47.456;19.120;2023-02-02T10:03:24;100364.69;;;5.84;72.47
71567;BME280;59403;47.456;19.120;2023-02-02T10:05:56;100352.41;;;5.85;71.55
71567;BME280;59403;47.456;19.120;2023-02-02T10:08:33;100371.94;;;5.92;71.28
71567;BME280;59403;47.456;19.120;2023-02-02T10:11:07;100366.97;;;5.89;70.48
71567;BME280;59403;47.456;19.120;2023-02-02T10:13:39;100354.75;;;5.88;71.13
71567;BME280;59403;47.456;19.120;2023-02-02T10:16:14;100370.78;;;5.85;70.90
71567;BME280;59403;47.456;19.120;2023-02-02T10:18:46;100351.31;;;5.87;71.11
71567;BME280;59403;47.456;19.120;2023-02-02T10:21:20;100358.97;;;5.79;72.45
71567;BME280;59403;47.456;19.120;2023-02-02T10:23:51;100349.94;;;5.93;72.34
71567;BME280;59403;47.456;19.120;2023-02-02T10:26:20;100354.31;;;6.03;72.40
71567;BME280;59403;47.456;19.120;2023-02-02T10:29:07;100355.09;;;5.94;71.55
71567;BME280;59403;47.456;19.120;2023-02-02T10:31:41;100353.94;;;5.87;72.87
71567;BME280;59403;47.456;19.120;2023-02-02T10:34:16;100344.81;;;5.91;73.27
71567;BME280;59403;47.456;19.120;2023-02-02T10:37:01;100331.81;;;5.90;72.41
71567;BME280;59403;47.456;19.120;2023-02-02T10:39:43;100311.78;;;5.89;73.30
71567;BME280;59403;47.456;19.120;2023-02-02T10:42:20;100329.25;;;5.99;73.53
71567;BME280;59403;47.456;19.120;2023-02-02T10:44:52;100323.53;;;6.15;72.76
71567;BME280;59403;47.456;19.120;2023-02-02T10:47:23;100334.97;;;6.34;72.57
71567;BME280;59403;47.456;19.120;2023-02-02T10:49:59;100325.84;;;6.38;71.17
71567;BME280;59403;47.456;19.120;2023-02-02T10:52:31;100332.53;;;6.42;70.35
71567;BME280;59403;47.456;19.120;2023-02-02T10:55:04;100331.84;;;6.50;70.52
71567;BME280;59403;47.456;19.120;2023-02-02T10:57:48;100323.00;;;6.51;71.07
71567;BME280;59403;47.456;19.120;2023-02-02T11:00:20;100330.81;;;6.62;70.28
71567;BME280;59403;47.456;19.120;2023-02-02T11:02:48;100325.97;;;6.67;70.23
71567;BME280;59403;47.456;19.120;2023-02-02T11:05:19;100308.78;;;6.72;70.40
71567;BME280;59403;47.456;19.120;2023-02-02T11:08:12;100336.72;;;6.54;70.70
71567;BME280;59403;47.456;19.120;2023-02-02T11:10:42;100325.84;;;6.68;70.25
71567;BME280;59403;47.456;19.120;2023-02-02T11:13:13;100330.09;;;6.60;70.87
71567;BME280;59403;47.456;19.120;2023-02-02T11:15:41;100325.19;;;6.46;70.61
71567;BME280;59403;47.456;19.120;2023-02-02T11:18:26;100326.16;;;6.45;69.84
71567;BME280;59403;47.456;19.120;2023-02-02T11:20:54;100330.28;;;6.38;70.60
71567;BME280;59403;47.456;19.120;2023-02-02T11:23:22;100324.72;;;6.31;71.73
71567;BME280;59403;47.456;19.120;2023-02-02T11:25:59;100325.84;;;6.38;72.38
71567;BME280;59403;47.456;19.120;2023-02-02T11:28:32;100328.19;;;6.62;71.41
71567;BME280;59403;47.456;19.120;2023-02-02T11:31:00;100323.56;;;6.54;71.41
71567;BME280;59403;47.456;19.120;2023-02-02T11:33:30;100333.81;;;6.57;72.01
71567;BME280;59403;47.456;19.120;2023-02-02T11:36:00;100334.19;;;6.43;71.73
71567;BME280;59403;47.456;19.120;2023-02-02T11:38:27;100333.75;;;6.38;71.29
71567;BME280;59403;47.456;19.120;2023-02-02T11:40:58;100332.91;;;6.38;73.83
71567;BME280;59403;47.456;19.120;2023-02-02T11:43:30;100345.97;;;6.49;71.18
71567;BME280;59403;47.456;19.120;2023-02-02T11:46:00;100352.37;;;6.56;72.69
71567;BME280;59403;47.456;19.120;2023-02-02T11:48:31;100355.50;;;6.50;72.22
71567;BME280;59403;47.456;19.120;2023-02-02T11:51:00;100350.94;;;6.42;71.87
71567;BME280;59403;47.456;19.120;2023-02-02T11:53:31;100351.50;;;6.46;72.01
71567;BME280;59403;47.456;19.120;2023-02-02T11:56:03;100338.28;;;6.36;72.11
71567;BME280;59403;47.456;19.120;2023-02-02T11:58:42;100344.53;;;6.35;72.35
71567;BME280;59403;47.456;19.120;2023-02-02T12:01:22;100341.34;;;6.32;71.68
71567;BME280;59403;47.456;19.120;2023-02-02T12:03:50;100343.25;;;6.30;71.55
71567;BME280;59403;47.456;19.120;2023-02-02T12:06:20;100363.09;;;6.34;72.26
71567;BME280;59403;47.456;19.120;2023-02-02T12:08:48;100342.69;;;6.26;73.20
71567;BME280;59403;47.456;19.120;2023-02-02T12:11:26;100332.31;;;6.25;72.17
71567;BME280;59403;47.456;19.120;2023-02-02T12:14:07;100341.28;;;6.22;73.21
71567;BME280;59403;47.456;19.120;2023-02-02T12:16:47;100335.19;;;6.22;73.64
71567;BME280;59403;47.456;19.120;2023-02-02T12:19:36;100346.66;;;6.21;74.67
71567;BME280;59403;47.456;19.120;2023-02-02T12:22:18;100334.06;;;6.15;75.16
71567;BME280;59403;47.456;19.120;2023-02-02T12:24:55;100344.00;;;6.11;74.63
71567;BME280;59403;47.456;19.120;2023-02-02T12:27:32;100340.34;;;6.03;76.30
71567;BME280;59403;47.456;19.120;2023-02-02T12:30:20;100341.69;;;5.97;76.25
71567;BME280;59403;47.456;19.120;2023-02-02T12:33:13;100342.19;;;5.91;76.00
71567;BME280;59403;47.456;19.120;2023-02-02T12:41:52;100338.19;;;5.87;74.82
71567;BME280;59403;47.456;19.120;2023-02-02T12:44:31;100344.25;;;5.88;73.89
71567;BME280;59403;47.456;19.120;2023-02-02T12:47:13;100330.53;;;5.84;75.86
71567;BME280;59403;47.456;19.120;2023-02-02T12:49:57;100332.94;;;5.87;76.56
71567;BME280;59403;47.456;19.120;2023-02-02T12:52:39;100332.34;;;5.84;76.71
71567;BME280;59403;47.456;19.120;2023-02-02T12:55:17;100329.34;;;5.77;76.25
71567;BME280;59403;47.456;19.120;2023-02-02T12:57:54;100339.19;;;5.75;77.00
71567;BME280;59403;47.456;19.120;2023-02-02T13:03:29;100339.28;;;5.73;76.19
71567;BME280;59403;47.456;19.120;2023-02-02T13:06:21;100335.97;;;5.71;77.54
71567;BME280;59403;47.456;19.120;2023-02-02T13:08:57;100339.28;;;5.73;75.79
71567;BME280;59403;47.456;19.120;2023-02-02T13:11:34;100338.19;;;5.76;75.01
71567;BME280;59403;47.456;19.120;2023-02-02T13:14:08;100341.66;;;5.76;74.32
71567;BME280;59403;47.456;19.120;2023-02-02T13:16:39;100346.94;;;5.76;74.08
71567;BME280;59403;47.456;19.120;2023-02-02T13:19:13;100351.72;;;5.71;74.46